createdAt,value
2023-01-17T00:00:21.868Z,27.52
2023-01-17T00:03:25.854Z,7.85
2023-01-17T00:06:47.972Z,11.68
2023-01-17T00:09:54.631Z,32.93
2023-01-17T00:13:00.603Z,33.30
2023-01-17T00:16:04.573Z,37.72
2023-01-17T00:19:26.485Z,15.13
2023-01-17T00:22:53.379Z,21.25
2023-01-17T00:26:06.286Z,16.40
2023-01-17T00:29:10.127Z,10.60
2023-01-17T00:32:13.931Z,13.05
2023-01-17T00:35:18.200Z,17.65
2023-01-17T00:38:24.070Z,26.55
2023-01-17T00:41:29.438Z,13.87
2023-01-17T00:44:50.833Z,17.88
2023-01-17T00:48:13.247Z,17.27
2023-01-17T00:51:35.550Z,18.77
2023-01-17T00:54:57.046Z,52.00
2023-01-17T00:58:25.139Z,25.35
2023-01-17T01:01:47.247Z,18.27
2023-01-17T01:05:09.109Z,15.82
2023-01-17T01:08:40.053Z,13.38
2023-01-17T01:12:01.796Z,24.98
2023-01-17T01:15:24.336Z,16.30
2023-01-17T01:18:46.806Z,15.27
2023-01-17T01:22:09.115Z,16.00
2023-01-17T01:25:31.661Z,10.10
2023-01-17T01:28:53.645Z,16.75
2023-01-17T01:32:15.364Z,15.23
2023-01-17T01:35:18.516Z,76.82
2023-01-17T01:38:24.396Z,53.30
2023-01-17T01:41:27.393Z,52.92
2023-01-17T01:44:51.983Z,54.15
2023-01-17T01:48:12.470Z,64.70
2023-01-17T01:51:21.432Z,67.15
2023-01-17T01:54:32.001Z,207.75
2023-01-17T01:57:50.401Z,83.63
2023-01-17T02:00:54.122Z,251.65
2023-01-17T02:03:58.319Z,276.02
2023-01-17T02:07:08.876Z,286.33
2023-01-17T02:10:13.668Z,85.55
2023-01-17T02:13:19.860Z,186.88
2023-01-17T02:16:51.569Z,207.02
2023-01-17T02:20:13.028Z,236.17
2023-01-17T02:23:55.019Z,124.85
2023-01-17T02:27:19.113Z,166.00
2023-01-17T02:30:41.971Z,185.50
2023-01-17T02:33:59.609Z,121.10
2023-01-17T02:37:19.687Z,221.30
2023-01-17T02:40:31.450Z,109.97
2023-01-17T02:43:38.171Z,207.73
2023-01-17T02:46:50.066Z,171.40
2023-01-17T02:50:02.064Z,110.38
2023-01-17T02:53:47.945Z,24.47
2023-01-17T02:57:16.159Z,126.15
2023-01-17T03:00:27.965Z,166.15
2023-01-17T03:03:40.810Z,113.83
2023-01-17T03:06:58.705Z,111.97
2023-01-17T03:10:05.551Z,122.35
2023-01-17T03:13:09.377Z,59.72
2023-01-17T03:16:21.718Z,73.07
2023-01-17T03:19:25.086Z,80.38
2023-01-17T03:22:28.143Z,29.45
2023-01-17T03:25:32.239Z,93.17
2023-01-17T03:28:35.729Z,76.70
2023-01-17T03:31:39.818Z,111.38
2023-01-17T03:34:43.427Z,110.97
2023-01-17T03:37:47.366Z,102.68
2023-01-17T03:40:50.860Z,107.43
2023-01-17T03:43:54.177Z,91.00
2023-01-17T03:46:57.243Z,138.68
2023-01-17T03:50:01.207Z,134.00
2023-01-17T03:53:04.445Z,176.57
2023-01-17T03:56:08.689Z,130.53
2023-01-17T03:59:13.152Z,134.57
2023-01-17T04:02:17.073Z,134.10
2023-01-17T04:05:20.761Z,141.90
2023-01-17T04:08:24.040Z,131.88
2023-01-17T04:11:26.903Z,111.88
2023-01-17T04:14:31.100Z,63.90
2023-01-17T04:17:34.783Z,92.63
2023-01-17T04:20:40.144Z,127.18
2023-01-17T04:23:43.844Z,112.45
2023-01-17T04:26:48.002Z,47.07
2023-01-17T04:29:51.984Z,83.72
2023-01-17T04:32:56.423Z,58.17
2023-01-17T04:36:00.640Z,78.57
2023-01-17T04:39:04.460Z,55.08
2023-01-17T04:42:10.036Z,28.02
2023-01-17T04:45:14.297Z,54.65
2023-01-17T04:48:17.676Z,47.45
2023-01-17T04:51:21.360Z,57.75
2023-01-17T04:54:25.513Z,39.42
2023-01-17T04:57:28.539Z,30.87
2023-01-17T05:00:31.794Z,65.05
2023-01-17T05:03:36.370Z,37.35
2023-01-17T05:06:40.378Z,21.93
2023-01-17T05:09:44.503Z,31.17
2023-01-17T05:12:59.157Z,20.45
2023-01-17T05:16:02.765Z,16.48
2023-01-17T05:19:06.732Z,26.30
2023-01-17T05:22:15.983Z,41.10
2023-01-17T05:25:19.545Z,37.13
2023-01-17T05:28:23.204Z,28.97
2023-01-17T05:31:27.251Z,25.33
2023-01-17T05:34:32.376Z,31.00
2023-01-17T05:37:36.464Z,29.47
2023-01-17T05:40:39.922Z,33.38
2023-01-17T05:43:44.105Z,20.73
2023-01-17T05:46:47.746Z,22.65
2023-01-17T05:49:51.059Z,19.95
2023-01-17T05:52:59.612Z,23.45
2023-01-17T05:56:03.602Z,58.90
2023-01-17T05:59:07.176Z,27.27
2023-01-17T06:02:11.205Z,39.97
2023-01-17T06:05:16.260Z,46.35
2023-01-17T06:08:19.638Z,17.77
2023-01-17T06:11:22.967Z,28.58
2023-01-17T06:14:26.919Z,36.38
2023-01-17T06:17:29.799Z,63.72
2023-01-17T06:20:34.271Z,46.70
2023-01-17T06:23:37.157Z,13.43
2023-01-17T06:26:41.134Z,23.02
2023-01-17T06:29:44.752Z,17.77
2023-01-17T06:32:57.135Z,56.85
2023-01-17T06:36:00.130Z,30.55
2023-01-17T06:39:03.332Z,54.77
2023-01-17T06:42:06.600Z,21.13
2023-01-17T06:45:11.110Z,10.82
2023-01-17T06:48:14.051Z,23.73
2023-01-17T06:51:18.237Z,21.80
2023-01-17T06:54:21.193Z,29.58
2023-01-17T06:57:24.580Z,32.63
2023-01-17T07:00:29.447Z,44.50
2023-01-17T07:03:33.714Z,27.75
2023-01-17T07:06:38.048Z,11.32
2023-01-17T07:09:41.957Z,9.93
2023-01-17T07:12:44.906Z,15.73
2023-01-17T07:15:48.197Z,17.48
2023-01-17T07:18:52.354Z,39.05
2023-01-17T07:21:56.195Z,22.50
2023-01-17T07:24:59.152Z,29.20
2023-01-17T07:28:02.436Z,24.00
2023-01-17T07:31:08.870Z,38.00
2023-01-17T07:34:12.688Z,38.38
2023-01-17T07:37:15.983Z,48.72
2023-01-17T07:40:20.829Z,35.17
2023-01-17T07:43:24.441Z,42.78
2023-01-17T07:46:29.759Z,47.90
2023-01-17T07:49:32.789Z,40.83
2023-01-17T07:52:36.095Z,30.35
2023-01-17T07:55:40.873Z,56.25
2023-01-17T07:58:44.188Z,22.67
2023-01-17T08:01:48.045Z,25.10
2023-01-17T08:04:51.574Z,26.23
2023-01-17T08:07:54.972Z,31.52
2023-01-17T08:10:58.666Z,59.03
2023-01-17T08:14:02.006Z,74.13
2023-01-17T08:17:13.655Z,57.72
2023-01-17T08:20:17.697Z,42.22
2023-01-17T08:23:21.507Z,33.53
2023-01-17T08:26:25.383Z,40.80
2023-01-17T08:29:28.575Z,36.28
2023-01-17T08:32:33.419Z,25.43
2023-01-17T08:35:36.508Z,46.30
2023-01-17T08:38:39.724Z,70.57
2023-01-17T08:41:42.600Z,32.47
2023-01-17T08:44:45.911Z,25.70
2023-01-17T08:47:51.740Z,29.02
2023-01-17T08:50:55.056Z,50.47
2023-01-17T08:53:59.086Z,31.17
2023-01-17T08:57:04.467Z,39.83
2023-01-17T09:00:09.615Z,31.63
2023-01-17T09:03:14.913Z,23.10
2023-01-17T09:06:18.739Z,17.92
2023-01-17T09:09:21.689Z,28.42
2023-01-17T09:12:25.387Z,25.53
2023-01-17T09:15:28.589Z,20.08
2023-01-17T09:18:34.340Z,34.92
2023-01-17T09:21:37.629Z,20.67
2023-01-17T09:24:40.746Z,17.30
2023-01-17T09:27:47.559Z,22.85
2023-01-17T09:30:51.856Z,65.40
2023-01-17T09:33:56.091Z,108.60
2023-01-17T09:36:58.981Z,59.55
2023-01-17T09:40:01.901Z,105.95
2023-01-17T09:43:15.403Z,46.07
2023-01-17T09:46:24.600Z,41.05
2023-01-17T09:49:40.651Z,37.90
2023-01-17T09:52:44.090Z,44.53
2023-01-17T09:55:55.570Z,14.60
2023-01-17T09:59:09.081Z,36.40
2023-01-17T10:02:39.947Z,67.25
2023-01-17T10:06:16.211Z,106.90
2023-01-17T10:09:31.110Z,48.90
2023-01-17T10:12:43.285Z,91.38
2023-01-17T10:15:49.273Z,237.97
2023-01-17T10:19:04.378Z,212.50
2023-01-17T10:22:26.457Z,288.40
2023-01-17T10:25:44.164Z,87.65
2023-01-17T10:28:52.166Z,78.97
2023-01-17T10:32:03.450Z,138.38
2023-01-17T10:35:21.570Z,58.63
2023-01-17T10:38:32.363Z,33.33
2023-01-17T10:41:44.299Z,22.27
2023-01-17T10:45:17.190Z,18.77
2023-01-17T10:48:45.044Z,5.10
2023-01-17T10:52:00.744Z,9.00
2023-01-17T10:55:35.120Z,19.00
2023-01-17T10:58:39.733Z,12.68
2023-01-17T11:01:43.884Z,6.18
2023-01-17T11:04:49.911Z,27.83
2023-01-17T11:08:00.345Z,285.60
2023-01-17T11:11:05.534Z,70.47
2023-01-17T11:14:29.626Z,78.18
2023-01-17T11:17:34.343Z,149.90
2023-01-17T11:20:40.427Z,90.53
2023-01-17T11:23:48.565Z,160.73
2023-01-17T11:26:52.215Z,64.65
2023-01-17T11:30:18.913Z,34.42
2023-01-17T11:33:49.627Z,62.83
2023-01-17T11:37:19.199Z,72.05
2023-01-17T11:40:30.748Z,73.28
2023-01-17T11:43:34.573Z,71.60
2023-01-17T11:46:38.740Z,132.07
2023-01-17T11:49:44.848Z,86.30
2023-01-17T11:52:48.274Z,79.47
2023-01-17T11:56:00.971Z,73.47
2023-01-17T11:59:24.818Z,31.73
2023-01-17T12:03:06.756Z,37.65
2023-01-17T12:06:33.039Z,88.13
2023-01-17T12:09:51.867Z,69.85
2023-01-17T12:13:25.415Z,67.15
2023-01-17T12:16:54.371Z,42.20
2023-01-17T12:20:10.822Z,52.30
2023-01-17T12:23:44.889Z,35.90
2023-01-17T12:27:00.531Z,77.37
2023-01-17T12:30:24.127Z,71.88
2023-01-17T12:33:49.330Z,53.13
2023-01-17T12:37:19.249Z,33.00
2023-01-17T12:40:25.663Z,61.45
2023-01-17T12:43:41.555Z,45.38
2023-01-17T12:46:50.937Z,38.80
2023-01-17T12:50:09.570Z,78.87
2023-01-17T12:53:51.961Z,133.05
2023-01-17T12:57:02.287Z,52.92
2023-01-17T13:00:13.391Z,62.67
2023-01-17T13:04:05.702Z,64.30
2023-01-17T13:07:23.802Z,30.35
2023-01-17T13:10:47.146Z,61.90
2023-01-17T13:13:52.772Z,52.47
2023-01-17T13:17:01.960Z,70.40
2023-01-17T13:20:24.257Z,24.40
2023-01-17T13:23:49.087Z,140.90
2023-01-17T13:26:52.067Z,58.20
2023-01-17T13:30:20.933Z,92.03
2023-01-17T13:34:14.473Z,65.50
2023-01-17T13:37:35.877Z,94.70
2023-01-17T13:40:55.492Z,64.55
2023-01-17T13:44:20.140Z,56.47
2023-01-17T13:47:23.793Z,219.40
2023-01-17T13:50:42.558Z,220.63
2023-01-17T13:53:47.085Z,288.80
2023-01-17T13:56:50.898Z,218.50
2023-01-17T13:59:55.322Z,249.93
2023-01-17T14:02:58.379Z,165.23
2023-01-17T14:06:01.521Z,138.40
2023-01-17T14:09:13.720Z,127.45
2023-01-17T14:12:19.456Z,116.00
2023-01-17T14:15:26.510Z,117.00
2023-01-17T14:18:44.540Z,97.82
2023-01-17T14:21:48.972Z,54.72
2023-01-17T14:25:15.535Z,22.67
2023-01-17T14:28:32.205Z,26.63
2023-01-17T14:31:35.308Z,62.58
2023-01-17T14:34:39.811Z,74.60
2023-01-17T14:37:52.524Z,101.97
2023-01-17T14:40:57.320Z,183.90
2023-01-17T14:44:01.605Z,82.25
2023-01-17T14:47:05.176Z,122.45
2023-01-17T14:50:36.517Z,220.02
2023-01-17T14:53:39.576Z,297.60
2023-01-17T14:56:42.541Z,197.25
2023-01-17T14:59:46.956Z,81.33
2023-01-17T15:02:51.243Z,65.45
2023-01-17T15:05:56.175Z,98.97
2023-01-17T15:09:01.465Z,58.53
2023-01-17T15:12:05.028Z,27.65
2023-01-17T15:15:44.839Z,46.38
2023-01-17T15:18:48.860Z,49.60
2023-01-17T15:21:54.907Z,17.95
2023-01-17T15:24:59.579Z,7.88
2023-01-17T15:28:05.159Z,14.40
2023-01-17T15:31:09.933Z,14.30
2023-01-17T15:34:26.367Z,11.50
2023-01-17T15:37:35.587Z,21.80
2023-01-17T15:40:44.159Z,24.93
2023-01-17T15:43:47.826Z,24.88
2023-01-17T15:46:51.084Z,35.83
2023-01-17T15:49:54.057Z,26.20
2023-01-17T15:53:06.157Z,28.38
2023-01-17T15:56:34.237Z,53.92
2023-01-17T15:59:45.991Z,38.22
2023-01-17T16:03:00.278Z,30.17
2023-01-17T16:06:04.992Z,49.15
2023-01-17T16:09:21.454Z,30.83
2023-01-17T16:12:24.194Z,51.07
2023-01-17T16:15:28.940Z,37.38
2023-01-17T16:18:31.759Z,33.75
2023-01-17T16:21:34.969Z,22.67
2023-01-17T16:24:37.806Z,11.65
2023-01-17T16:27:43.864Z,24.60
2023-01-17T16:30:49.321Z,26.55
2023-01-17T16:33:52.623Z,22.33
2023-01-17T16:36:55.375Z,32.63
2023-01-17T16:39:58.161Z,17.63
2023-01-17T16:43:01.636Z,15.37
2023-01-17T16:46:04.847Z,292.02
2023-01-17T16:49:07.829Z,227.65
2023-01-17T16:52:11.036Z,210.88
2023-01-17T16:55:17.013Z,226.50
2023-01-17T16:58:21.021Z,78.00
2023-01-17T17:01:25.857Z,246.30
2023-01-17T17:04:28.870Z,305.50
2023-01-17T17:07:31.726Z,135.45
2023-01-17T17:10:35.027Z,105.50
2023-01-17T17:13:38.340Z,137.23
2023-01-17T17:16:42.703Z,69.63
2023-01-17T17:19:49.051Z,92.97
2023-01-17T17:22:53.163Z,140.98
2023-01-17T17:25:57.942Z,47.90
2023-01-17T17:29:02.123Z,163.95
2023-01-17T17:32:07.593Z,82.53
2023-01-17T17:35:11.205Z,74.57
2023-01-17T17:38:14.193Z,62.55
2023-01-17T17:41:28.692Z,85.50
2023-01-17T17:44:31.649Z,81.03
2023-01-17T17:47:34.819Z,104.40
2023-01-17T17:50:37.678Z,166.73
2023-01-17T17:53:40.688Z,213.88
2023-01-17T17:56:47.138Z,97.88
2023-01-17T17:59:50.728Z,100.95
2023-01-17T18:02:53.635Z,105.95
2023-01-17T18:06:03.013Z,119.17
2023-01-17T18:09:08.289Z,69.65
2023-01-17T18:12:11.602Z,30.90
2023-01-17T18:15:15.519Z,36.03
2023-01-17T18:18:18.816Z,41.08
2023-01-17T18:21:27.410Z,32.63
2023-01-17T18:24:30.363Z,77.00
2023-01-17T18:27:33.945Z,38.75
2023-01-17T18:30:39.375Z,63.88
2023-01-17T18:33:43.066Z,73.57
2023-01-17T18:36:46.565Z,129.50
2023-01-17T18:39:49.728Z,119.45
2023-01-17T18:42:52.860Z,117.60
2023-01-17T18:45:56.007Z,73.20
2023-01-17T18:49:00.190Z,66.78
2023-01-17T18:52:03.895Z,69.35
2023-01-17T18:55:08.352Z,143.27
2023-01-17T18:58:11.307Z,50.30
2023-01-17T19:01:24.314Z,39.25
2023-01-17T19:04:29.045Z,32.95
2023-01-17T19:07:34.188Z,126.90
2023-01-17T19:10:37.010Z,113.50
2023-01-17T19:13:42.622Z,88.63
2023-01-17T19:16:48.607Z,59.23
2023-01-17T19:19:52.253Z,50.72
2023-01-17T19:22:55.980Z,78.07
2023-01-17T19:25:59.553Z,27.30
2023-01-17T19:29:07.212Z,85.43
2023-01-17T19:32:11.097Z,139.27
2023-01-17T19:35:14.899Z,78.25
2023-01-17T19:38:18.192Z,47.03
2023-01-17T19:41:27.158Z,28.60
2023-01-17T19:44:30.868Z,67.80
2023-01-17T19:47:34.380Z,65.73
2023-01-17T19:50:38.289Z,35.75
2023-01-17T19:53:42.368Z,50.03
2023-01-17T19:56:45.293Z,80.10
2023-01-17T19:59:48.773Z,26.35
2023-01-17T20:02:51.873Z,33.80
2023-01-17T20:06:00.980Z,30.15
2023-01-17T20:09:06.034Z,16.23
2023-01-17T20:12:09.079Z,29.08
2023-01-17T20:15:12.802Z,25.10
2023-01-17T20:18:16.254Z,47.83
2023-01-17T20:21:24.241Z,50.95
2023-01-17T20:24:27.883Z,72.47
2023-01-17T20:27:30.693Z,59.50
2023-01-17T20:30:35.132Z,78.32
2023-01-17T20:33:38.062Z,57.05
2023-01-17T20:36:42.582Z,113.05
2023-01-17T20:39:46.333Z,126.83
2023-01-17T20:42:49.421Z,38.83
2023-01-17T20:45:57.118Z,29.38
2023-01-17T20:49:06.008Z,48.60
2023-01-17T20:52:09.190Z,47.75
2023-01-17T20:55:12.116Z,42.15
2023-01-17T20:58:15.605Z,22.63
2023-01-17T21:01:21.316Z,13.10
2023-01-17T21:04:26.479Z,48.03
2023-01-17T21:07:29.373Z,12.52
2023-01-17T21:10:32.525Z,43.47
2023-01-17T21:13:36.666Z,101.15
2023-01-17T21:16:41.044Z,49.38
2023-01-17T21:19:44.501Z,10.33
2023-01-17T21:22:48.581Z,21.35
2023-01-17T21:25:55.920Z,7.88
2023-01-17T21:29:01.393Z,25.35
2023-01-17T21:32:05.357Z,19.55
2023-01-17T21:35:09.000Z,19.95
2023-01-17T21:38:14.332Z,32.55
2023-01-17T21:41:17.587Z,23.00
2023-01-17T21:44:23.677Z,44.85
2023-01-17T21:47:26.819Z,10.85
2023-01-17T21:50:33.632Z,71.57
2023-01-17T21:53:39.759Z,24.23
2023-01-17T21:57:01.978Z,36.35
2023-01-17T22:00:12.705Z,116.13
2023-01-17T22:03:18.185Z,16.65
2023-01-17T22:06:22.776Z,24.88
2023-01-17T22:09:26.364Z,5.47
2023-01-17T22:12:30.306Z,29.73
2023-01-17T22:15:37.038Z,15.77
2023-01-17T22:18:42.357Z,14.68
2023-01-17T22:21:45.959Z,29.57
2023-01-17T22:24:49.244Z,17.45
2023-01-17T22:27:52.255Z,8.05
2023-01-17T22:30:56.255Z,4.35
2023-01-17T22:34:02.600Z,34.47
2023-01-17T22:37:10.552Z,24.35
2023-01-17T22:40:14.034Z,14.98
2023-01-17T22:43:17.755Z,39.10
2023-01-17T22:46:26.472Z,20.85
2023-01-17T22:49:30.060Z,14.20
2023-01-17T22:52:34.203Z,18.03
2023-01-17T22:55:37.803Z,12.57
2023-01-17T22:58:45.553Z,21.67
2023-01-17T23:01:49.059Z,17.08
2023-01-17T23:04:53.207Z,14.23
2023-01-17T23:07:57.075Z,11.07
2023-01-17T23:11:19.023Z,27.63
2023-01-17T23:14:51.983Z,12.03
2023-01-17T23:18:13.937Z,15.27
2023-01-17T23:21:17.533Z,21.73
2023-01-17T23:24:21.075Z,29.27
2023-01-17T23:28:02.617Z,24.17
2023-01-17T23:31:06.965Z,35.25
2023-01-17T23:34:09.938Z,21.80
2023-01-17T23:37:13.497Z,237.38
2023-01-17T23:40:18.219Z,110.57
2023-01-17T23:43:25.160Z,66.22
2023-01-17T23:46:30.619Z,80.50
2023-01-17T23:49:34.527Z,77.47
2023-01-17T23:52:37.748Z,84.07
2023-01-17T23:55:43.216Z,63.60
2023-01-17T23:58:46.325Z,90.03
